Time;durP1;ratioP1;P1;durP2;ratioP2;P2;SDS_P1;SDS_P2;PMS_P1;PMS_P2;Temp;Humidity;BMP_temperature;BMP_pressure;BME280_temperature;BME280_humidity;BME280_pressure;Samples;Min_cycle;Max_cycle;Signal;HPM_P1;HPM_P2
2022/06/14 00:00:56;;;;;;;;;;;;;;;;;;5067302;28;20361;-58
2022/06/14 00:03:22;;;;;;;;;;;;;;;;;;5070807;28;20503;-58
2022/06/14 00:05:49;;;;;;;;;;;;;;;;;;5086852;28;19908;-58
2022/06/14 00:08:15;;;;;;;;;;;;;;;;;;5086990;28;19912;-58
2022/06/14 00:10:41;;;;;;;;;;;;;;;;;;5086942;28;19911;-57
2022/06/14 00:13:06;;;;;;;;;;;;;;;;;;5086939;28;19924;-58
2022/06/14 00:15:32;;;;;;;;;;;;;;;;;;5085023;28;19935;-57
2022/06/14 00:17:58;;;;;;;;;;;;;;;;;;5066600;28;19999;-58
2022/06/14 00:20:24;;;;;;;;;;;;;;;;;;5066582;28;19908;-58
2022/06/14 00:22:51;;;;;;;;;;;;;;;;;;5066633;28;19912;-58
2022/06/14 00:25:17;;;;;;;;;;;;;;;;;;5060695;28;19905;-58
2022/06/14 00:27:43;;;;;;;;;;;;;;;;;;5046663;28;19920;-58
2022/06/14 00:30:09;;;;;;;;;;;;;;;;;;5047074;28;19913;-58
2022/06/14 00:32:35;;;;;;;;;;;;;;;;;;5046233;28;19930;-57
2022/06/14 00:35:01;;;;;;;;;;;;;;;;;;5046281;28;19938;-57
2022/06/14 00:37:27;;;;;;;;;;;;;;;;;;5046160;28;19958;-57
2022/06/14 00:39:53;;;;;;;;;;;;;;;;;;5047178;28;19978;-57
2022/06/14 00:42:19;;;;;;;;;;;;;;;;;;5046243;28;19952;-58
2022/06/14 00:44:45;;;;;;;;;;;;;;;;;;5047565;28;19908;-58
2022/06/14 00:47:11;;;;;;;;;;;;;;;;;;5046850;28;19995;-57
2022/06/14 00:49:37;;;;;;;;;;;;;;;;;;5046341;28;19987;-58
2022/06/14 00:52:03;;;;;;;;;;;;;;;;;;5046397;28;19916;-58
2022/06/14 00:54:30;;;;;;;;;;;;;;;;;;5046333;28;19951;-57
2022/06/14 00:56:56;;;;;;;;;;;;;;;;;;5046032;28;19919;-58
2022/06/14 00:59:22;;;;;;;;;;;;;;;;;;5045864;28;19966;-58
2022/06/14 01:01:48;;;;;;;;;;;;;;;;;;5046175;28;19905;-57
2022/06/14 01:04:14;;;;;;;;;;;;;;;;;;5045665;28;19915;-58
2022/06/14 01:06:40;;;;;;;;;;;;;;;;;;5049373;28;19912;-57
2022/06/14 01:09:06;;;;;;;;;;;;;;;;;;5049972;28;19916;-57
2022/06/14 01:11:32;;;;;;;;;;;;;;;;;;5049920;28;19908;-57
2022/06/14 01:13:58;;;;;;;;;;;;;;;;;;5064426;28;19908;-57
2022/06/14 01:16:24;;;;;;;;;;;;;;;;;;5069959;28;20001;-57
2022/06/14 01:18:50;;;;;;;;;;;;;;;;;;5069889;28;19908;-58
2022/06/14 01:21:16;;;;;;;;;;;;;;;;;;5068510;28;20044;-57
2022/06/14 01:23:42;;;;;;;;;;;;;;;;;;5069715;28;19909;-58
2022/06/14 01:26:08;;;;;;;;;;;;;;;;;;5070099;28;19958;-57
2022/06/14 01:28:34;;;;;;;;;;;;;;;;;;5056628;28;19935;-58
2022/06/14 01:31:00;;;;;;;;;;;;;;;;;;5053482;28;19947;-58
2022/06/14 01:33:26;;;;;;;;;;;;;;;;;;5069455;28;19909;-57
2022/06/14 01:35:52;;;;;;;;;;;;;;;;;;5069597;28;19914;-57
2022/06/14 01:38:18;;;;;;;;;;;;;;;;;;5069581;28;19991;-58
2022/06/14 01:40:44;;;;;;;;;;;;;;;;;;5069585;28;19935;-58
2022/06/14 01:43:10;;;;;;;;;;;;;;;;;;5070098;28;19904;-57
2022/06/14 01:45:36;;;;;;;;;;;;;;;;;;5068386;28;19912;-58
2022/06/14 01:48:02;;;;;;;;;;;;;;;;;;5069329;28;20558;-57
2022/06/14 01:53:13;;;;;;;;;;;;;;;;;;5068984;28;19915;-58
2022/06/14 01:55:39;;;;;;;;;;;;;;;;;;5069422;28;19912;-57
2022/06/14 01:58:05;;;;;;;;;;;;;;;;;;5068377;28;19908;-57
2022/06/14 02:00:31;;;;;;;;;;;;;;;;;;5069051;28;19915;-57
2022/06/14 02:04:37;;;;;;;;;;;;;;;;;;5068707;28;19905;-57
2022/06/14 02:05:43;;;;;;;;;;;;;;;;;;5069098;28;19912;-58
2022/06/14 02:08:08;;;;;;;;;;;;;;;;;;5069544;28;19905;-57
2022/06/14 02:10:34;;;;;;;;;;;;;;;;;;5052360;28;19912;-57
2022/06/14 02:13:00;;;;;;;;;;;;;;;;;;5048911;28;19909;-57
2022/06/14 02:15:27;;;;;;;;;;;;;;;;;;5048735;28;19915;-57
2022/06/14 02:17:53;;;;;;;;;;;;;;;;;;5047193;28;19909;-57
2022/06/14 02:20:19;;;;;;;;;;;;;;;;;;5049532;28;19908;-58
2022/06/14 02:22:45;;;;;;;;;;;;;;;;;;5048693;28;19909;-58
2022/06/14 02:25:12;;;;;;;;;;;;;;;;;;5049358;28;20459;-57
2022/06/14 02:27:38;;;;;;;;;;;;;;;;;;5049252;28;19912;-57
2022/06/14 02:30:04;;;;;;;;;;;;;;;;;;5048677;28;19912;-57
2022/06/14 02:32:29;;;;;;;;;;;;;;;;;;5048110;28;19943;-57
2022/06/14 02:34:55;;;;;;;;;;;;;;;;;;5066488;28;19912;-57
2022/06/14 02:37:21;;;;;;;;;;;;;;;;;;5068402;28;19981;-57
2022/06/14 02:39:47;;;;;;;;;;;;;;;;;;5068454;28;19911;-58
2022/06/14 02:42:13;;;;;;;;;;;;;;;;;;5068160;28;19912;-58
2022/06/14 02:44:39;;;;;;;;;;;;;;;;;;5068684;28;19904;-58
2022/06/14 02:47:05;;;;;;;;;;;;;;;;;;5068264;28;19904;-57
2022/06/14 02:49:31;;;;;;;;;;;;;;;;;;5067322;28;19916;-57
2022/06/14 02:51:57;;;;;;;;;;;;;;;;;;5068220;28;19904;-58
2022/06/14 02:54:23;;;;;;;;;;;;;;;;;;5067568;28;19983;-57
2022/06/14 02:56:49;;;;;;;;;;;;;;;;;;5068212;28;19904;-58
2022/06/14 02:59:15;;;;;;;;;;;;;;;;;;5047179;28;19912;-57
2022/06/14 03:01:42;;;;;;;;;;;;;;;;;;5047857;28;20407;-57
2022/06/14 03:04:09;;;;;;;;;;;;;;;;;;5047409;28;19947;-57
2022/06/14 03:06:35;;;;;;;;;;;;;;;;;;5047713;28;19904;-58
2022/06/14 03:09:01;;;;;;;;;;;;;;;;;;5047321;28;19940;-57
2022/06/14 03:11:27;;;;;;;;;;;;;;;;;;5047565;28;19908;-57
2022/06/14 03:13:53;;;;;;;;;;;;;;;;;;5066069;28;19918;-57
2022/06/14 03:16:19;;;;;;;;;;;;;;;;;;5067522;28;19904;-57
2022/06/14 03:18:45;;;;;;;;;;;;;;;;;;5067800;28;20291;-57
2022/06/14 03:21:11;;;;;;;;;;;;;;;;;;5066871;28;19919;-57
2022/06/14 03:23:37;;;;;;;;;;;;;;;;;;5067198;28;19909;-57
2022/06/14 03:26:03;;;;;;;;;;;;;;;;;;5067419;28;19912;-57
2022/06/14 03:28:29;;;;;;;;;;;;;;;;;;5067027;28;19904;-57
2022/06/14 03:30:55;;;;;;;;;;;;;;;;;;5067463;28;19905;-57
2022/06/14 03:33:24;;;;;;;;;;;;;;;;;;5067442;28;19948;-57
2022/06/14 03:35:50;;;;;;;;;;;;;;;;;;5057990;28;19970;-58
2022/06/14 03:38:16;;;;;;;;;;;;;;;;;;5047358;28;19964;-57
2022/06/14 03:40:43;;;;;;;;;;;;;;;;;;5047432;28;19909;-57
2022/06/14 03:43:09;;;;;;;;;;;;;;;;;;5047341;28;19912;-57
2022/06/14 03:45:35;;;;;;;;;;;;;;;;;;5046725;28;20418;-57
2022/06/14 03:48:00;;;;;;;;;;;;;;;;;;5047141;28;19905;-57
2022/06/14 03:50:26;;;;;;;;;;;;;;;;;;5055370;28;19916;-58
2022/06/14 03:52:53;;;;;;;;;;;;;;;;;;5067569;28;19935;-57
2022/06/14 03:55:19;;;;;;;;;;;;;;;;;;5067238;28;19912;-57
2022/06/14 03:57:45;;;;;;;;;;;;;;;;;;5066206;28;19908;-57
2022/06/14 04:00:11;;;;;;;;;;;;;;;;;;5059744;28;19919;-57
2022/06/14 04:02:56;;;;;;;;;;;;;;;;;;5046486;28;19908;-57
2022/06/14 04:05:22;;;;;;;;;;;;;;;;;;5047199;28;19987;-57
2022/06/14 04:07:48;;;;;;;;;;;;;;;;;;5047288;28;19943;-57
2022/06/14 04:10:14;;;;;;;;;;;;;;;;;;5046992;28;20348;-57
2022/06/14 04:12:40;;;;;;;;;;;;;;;;;;5046648;28;20293;-57
2022/06/14 04:15:05;;;;;;;;;;;;;;;;;;5054614;28;19909;-57
2022/06/14 04:17:31;;;;;;;;;;;;;;;;;;5066696;28;19908;-57
2022/06/14 04:19:57;;;;;;;;;;;;;;;;;;5056219;28;19913;-57
2022/06/14 04:22:23;;;;;;;;;;;;;;;;;;5047103;28;19948;-57
2022/06/14 04:24:49;;;;;;;;;;;;;;;;;;5047077;28;19900;-57
2022/06/14 04:27:15;;;;;;;;;;;;;;;;;;5046569;28;19909;-57
2022/06/14 04:29:41;;;;;;;;;;;;;;;;;;5046494;28;20003;-57
2022/06/14 04:32:07;;;;;;;;;;;;;;;;;;5046175;28;19908;-57
2022/06/14 04:34:33;;;;;;;;;;;;;;;;;;5046744;28;19917;-57
2022/06/14 04:36:59;;;;;;;;;;;;;;;;;;5046566;28;19999;-57
2022/06/14 04:39:25;;;;;;;;;;;;;;;;;;5046442;28;19944;-57
2022/06/14 04:41:51;;;;;;;;;;;;;;;;;;5050327;28;19904;-57
2022/06/14 04:44:17;;;;;;;;;;;;;;;;;;5050407;28;19908;-57
2022/06/14 04:46:44;;;;;;;;;;;;;;;;;;5050299;28;20883;-58
2022/06/14 04:49:10;;;;;;;;;;;;;;;;;;5058358;28;20307;-57
2022/06/14 04:51:36;;;;;;;;;;;;;;;;;;5070012;28;19904;-57
2022/06/14 04:54:02;;;;;;;;;;;;;;;;;;5070138;28;20022;-57
2022/06/14 04:56:28;;;;;;;;;;;;;;;;;;5070312;28;19915;-57
2022/06/14 04:58:54;;;;;;;;;;;;;;;;;;5091013;28;19956;-57
2022/06/14 05:01:20;;;;;;;;;;;;;;;;;;5058914;28;19905;-57
2022/06/14 05:03:46;;;;;;;;;;;;;;;;;;5050069;28;19927;-57
2022/06/14 05:06:11;;;;;;;;;;;;;;;;;;5050263;28;19908;-57
2022/06/14 05:08:37;;;;;;;;;;;;;;;;;;5049910;28;19912;-57
2022/06/14 05:11:04;;;;;;;;;;;;;;;;;;5068413;28;19916;-57
2022/06/14 05:13:31;;;;;;;;;;;;;;;;;;5068291;28;19912;-57
2022/06/14 05:15:58;;;;;;;;;;;;;;;;;;5068302;28;19914;-57
2022/06/14 05:18:24;;;;;;;;;;;;;;;;;;5068144;28;20010;-57
2022/06/14 05:20:51;;;;;;;;;;;;;;;;;;5050994;28;19989;-57
2022/06/14 05:23:17;;;;;;;;;;;;;;;;;;5048095;28;19970;-57
2022/06/14 05:25:43;;;;;;;;;;;;;;;;;;5048519;28;20418;-57
2022/06/14 05:28:10;;;;;;;;;;;;;;;;;;5048514;28;19911;-57
2022/06/14 05:30:35;;;;;;;;;;;;;;;;;;5048348;28;19963;-57
2022/06/14 05:33:01;;;;;;;;;;;;;;;;;;5048326;28;20509;-57
2022/06/14 05:35:27;;;;;;;;;;;;;;;;;;5064076;28;19916;-57
2022/06/14 05:37:55;;;;;;;;;;;;;;;;;;5068126;28;20330;-57
2022/06/14 05:40:22;;;;;;;;;;;;;;;;;;5067872;28;19908;-57
2022/06/14 05:42:48;;;;;;;;;;;;;;;;;;5066301;28;19913;-58
2022/06/14 05:45:15;;;;;;;;;;;;;;;;;;5069590;28;19904;-57
2022/06/14 05:47:41;;;;;;;;;;;;;;;;;;5067676;28;19911;-55
2022/06/14 05:50:08;;;;;;;;;;;;;;;;;;5070299;28;20306;-56
2022/06/14 05:52:34;;;;;;;;;;;;;;;;;;5067355;28;19923;-56
2022/06/14 05:55:00;;;;;;;;;;;;;;;;;;5049462;28;19913;-55
2022/06/14 05:57:26;;;;;;;;;;;;;;;;;;5067713;28;20343;-56
2022/06/14 05:59:54;;;;;;;;;;;;;;;;;;5068710;28;19928;-55
2022/06/14 06:02:20;;;;;;;;;;;;;;;;;;5069817;28;19913;-55
2022/06/14 06:04:46;;;;;;;;;;;;;;;;;;5071074;28;19935;-55
2022/06/14 06:07:12;;;;;;;;;;;;;;;;;;5068883;28;19904;-56
2022/06/14 06:09:38;;;;;;;;;;;;;;;;;;5068496;28;19965;-56
2022/06/14 06:12:04;;;;;;;;;;;;;;;;;;5069636;28;19915;-56
2022/06/14 06:14:30;;;;;;;;;;;;;;;;;;5068443;28;19908;-56
2022/06/14 06:17:05;;;;;;;;;;;;;;;;;;5068840;28;19911;-56
2022/06/14 06:19:31;;;;;;;;;;;;;;;;;;5060312;28;19923;-56
2022/06/14 06:21:57;;;;;;;;;;;;;;;;;;5061132;28;19912;-56
2022/06/14 06:24:23;;;;;;;;;;;;;;;;;;5069618;28;19916;-56
2022/06/14 06:26:49;;;;;;;;;;;;;;;;;;5068899;28;19904;-57
2022/06/14 06:29:15;;;;;;;;;;;;;;;;;;5068383;28;19908;-56
2022/06/14 06:31:41;;;;;;;;;;;;;;;;;;5068202;28;19904;-55
2022/06/14 06:34:10;;;;;;;;;;;;;;;;;;5072428;28;19908;-55
2022/06/14 06:36:36;;;;;;;;;;;;;;;;;;5087772;28;20383;-56
2022/06/14 06:39:02;;;;;;;;;;;;;;;;;;5089153;28;20268;-56
2022/06/14 06:44:12;;;;;;;;;;;;;;;;;;5085047;28;20035;-55
2022/06/14 06:46:38;;;;;;;;;;;;;;;;;;5085435;28;20010;-55
2022/06/14 06:49:05;;;;;;;;;;;;;;;;;;5075562;28;19981;-55
2022/06/14 06:51:35;;;;;;;;;;;;;;;;;;5066332;28;19926;-55
2022/06/14 06:54:01;;;;;;;;;;;;;;;;;;5064546;28;20021;-55
2022/06/14 06:56:27;;;;;;;;;;;;;;;;;;5083305;28;19947;-55
2022/06/14 06:58:53;;;;;;;;;;;;;;;;;;5081631;28;19921;-55
2022/06/14 07:01:19;;;;;;;;;;;;;;;;;;5066491;28;20301;-55
2022/06/14 07:03:45;;;;;;;;;;;;;;;;;;5054978;28;19909;-55
2022/06/14 07:06:10;;;;;;;;;;;;;;;;;;5050772;28;19962;-56
2022/06/14 07:08:36;;;;;;;;;;;;;;;;;;5084384;28;20397;-55
2022/06/14 07:11:02;;;;;;;;;;;;;;;;;;5081334;28;19908;-55
2022/06/14 07:13:28;;;;;;;;;;;;;;;;;;5051066;28;20427;-55
2022/06/14 07:15:54;;;;;;;;;;;;;;;;;;5066191;28;19908;-55
2022/06/14 07:18:20;;;;;;;;;;;;;;;;;;5066110;28;19908;-55
2022/06/14 07:20:48;;;;;;;;;;;;;;;;;;5065709;28;19904;-55
2022/06/14 07:23:15;;;;;;;;;;;;;;;;;;5066116;28;19934;-55
2022/06/14 07:25:42;;;;;;;;;;;;;;;;;;5066992;28;19908;-55
2022/06/14 07:28:09;;;;;;;;;;;;;;;;;;5066712;28;20375;-55
2022/06/14 07:30:35;;;;;;;;;;;;;;;;;;5065989;28;19908;-56
2022/06/14 07:33:01;;;;;;;;;;;;;;;;;;5074702;28;20307;-54
2022/06/14 07:35:27;;;;;;;;;;;;;;;;;;5086270;28;19904;-54
2022/06/14 07:37:54;;;;;;;;;;;;;;;;;;5073704;28;19908;-54
2022/06/14 07:40:20;;;;;;;;;;;;;;;;;;5065212;28;19905;-54
2022/06/14 07:42:46;;;;;;;;;;;;;;;;;;5067760;28;19905;-56
2022/06/14 07:45:13;;;;;;;;;;;;;;;;;;5066537;28;19912;-54
2022/06/14 07:47:40;;;;;;;;;;;;;;;;;;5066132;28;19912;-56
2022/06/14 07:50:07;;;;;;;;;;;;;;;;;;5064116;28;19970;-56
2022/06/14 07:52:34;;;;;;;;;;;;;;;;;;5067006;28;19958;-55
2022/06/14 07:55:00;;;;;;;;;;;;;;;;;;5066860;28;19909;-55
2022/06/14 07:57:26;;;;;;;;;;;;;;;;;;5066465;28;19926;-54
2022/06/14 07:59:53;;;;;;;;;;;;;;;;;;5066772;28;19908;-54
2022/06/14 08:02:19;;;;;;;;;;;;;;;;;;5066009;28;19915;-54
2022/06/14 08:04:46;;;;;;;;;;;;;;;;;;5071027;28;20371;-56
2022/06/14 08:07:12;;;;;;;;;;;;;;;;;;5083383;28;19961;-55
2022/06/14 08:09:40;;;;;;;;;;;;;;;;;;5067837;28;20439;-54
2022/06/14 08:12:06;;;;;;;;;;;;;;;;;;5066964;28;19944;-55
2022/06/14 08:14:33;;;;;;;;;;;;;;;;;;5065635;28;20071;-56
2022/06/14 08:16:59;;;;;;;;;;;;;;;;;;5074873;28;19956;-55
2022/06/14 08:19:25;;;;;;;;;;;;;;;;;;5080558;28;19943;-55
2022/06/14 08:21:51;;;;;;;;;;;;;;;;;;5073041;28;19916;-55
2022/06/14 08:24:18;;;;;;;;;;;;;;;;;;5077342;28;19904;-55
2022/06/14 08:26:44;;;;;;;;;;;;;;;;;;5066385;28;19909;-56
2022/06/14 08:29:10;;;;;;;;;;;;;;;;;;5085678;28;19934;-56
2022/06/14 08:31:36;;;;;;;;;;;;;;;;;;5086736;28;19904;-55
2022/06/14 08:34:01;;;;;;;;;;;;;;;;;;5084760;28;19950;-55
2022/06/14 08:36:27;;;;;;;;;;;;;;;;;;5083604;28;20618;-55
2022/06/14 08:38:53;;;;;;;;;;;;;;;;;;5073087;28;19919;-55
2022/06/14 08:41:20;;;;;;;;;;;;;;;;;;5065769;28;20493;-56
2022/06/14 08:43:46;;;;;;;;;;;;;;;;;;5065869;28;19904;-53
2022/06/14 08:46:12;;;;;;;;;;;;;;;;;;5066290;28;19910;-56
2022/06/14 08:48:38;;;;;;;;;;;;;;;;;;5062717;28;19915;-56
2022/06/14 08:51:05;;;;;;;;;;;;;;;;;;5053489;28;19912;-55
2022/06/14 08:53:32;;;;;;;;;;;;;;;;;;5063653;28;19983;-55
2022/06/14 08:55:58;;;;;;;;;;;;;;;;;;5057253;28;20295;-55
2022/06/14 08:58:24;;;;;;;;;;;;;;;;;;5063933;28;19913;-54
2022/06/14 09:00:50;;;;;;;;;;;;;;;;;;5082720;28;19908;-54
2022/06/14 09:03:16;;;;;;;;;;;;;;;;;;5069440;28;19904;-56
2022/06/14 09:05:41;;;;;;;;;;;;;;;;;;5065725;28;20394;-54
2022/06/14 09:08:07;;;;;;;;;;;;;;;;;;5066473;28;19900;-55
2022/06/14 09:10:33;;;;;;;;;;;;;;;;;;5065775;28;20368;-55
2022/06/14 09:12:59;;;;;;;;;;;;;;;;;;5065703;28;20342;-55
2022/06/14 09:15:25;;;;;;;;;;;;;;;;;;5065423;28;19904;-55
2022/06/14 09:17:51;;;;;;;;;;;;;;;;;;5070651;28;19919;-56
2022/06/14 09:20:18;;;;;;;;;;;;;;;;;;5065678;28;20197;-56
2022/06/14 09:22:45;;;;;;;;;;;;;;;;;;5077760;28;19911;-56
2022/06/14 09:25:11;;;;;;;;;;;;;;;;;;5066922;28;19931;-56
2022/06/14 09:27:37;;;;;;;;;;;;;;;;;;5068214;28;19908;-55
2022/06/14 09:30:02;;;;;;;;;;;;;;;;;;5069266;28;20150;-55
2022/06/14 09:32:29;;;;;;;;;;;;;;;;;;5073837;28;20397;-55
2022/06/14 09:34:55;;;;;;;;;;;;;;;;;;5089716;28;20279;-55
2022/06/14 09:37:21;;;;;;;;;;;;;;;;;;5089179;28;19911;-56
2022/06/14 09:39:47;;;;;;;;;;;;;;;;;;5070208;28;19908;-56
2022/06/14 09:42:13;;;;;;;;;;;;;;;;;;5068979;28;19947;-56
2022/06/14 09:44:39;;;;;;;;;;;;;;;;;;5067947;28;19957;-56
2022/06/14 09:47:05;;;;;;;;;;;;;;;;;;5069662;28;19995;-55
2022/06/14 09:49:32;;;;;;;;;;;;;;;;;;5065445;28;20083;-56
2022/06/14 09:51:58;;;;;;;;;;;;;;;;;;5064291;28;20330;-55
2022/06/14 09:54:23;;;;;;;;;;;;;;;;;;5068297;28;19913;-55
2022/06/14 09:56:49;;;;;;;;;;;;;;;;;;5068830;28;19918;-56
2022/06/14 09:59:15;;;;;;;;;;;;;;;;;;5068849;28;19915;-55
2022/06/14 10:01:41;;;;;;;;;;;;;;;;;;5067727;28;19950;-56
2022/06/14 10:04:07;;;;;;;;;;;;;;;;;;5068265;28;20394;-56
2022/06/14 10:06:34;;;;;;;;;;;;;;;;;;5079002;28;19912;-55
2022/06/14 10:09:00;;;;;;;;;;;;;;;;;;5068617;28;19916;-56
2022/06/14 10:11:26;;;;;;;;;;;;;;;;;;5068677;28;19904;-56
2022/06/14 10:13:52;;;;;;;;;;;;;;;;;;5069141;28;19904;-56
2022/06/14 10:16:18;;;;;;;;;;;;;;;;;;5068755;28;19932;-56
2022/06/14 10:18:44;;;;;;;;;;;;;;;;;;5069000;28;19905;-56
2022/06/14 10:21:11;;;;;;;;;;;;;;;;;;5069243;28;19961;-56
2022/06/14 10:23:38;;;;;;;;;;;;;;;;;;5068458;28;19912;-56
2022/06/14 10:28:48;;;;;;;;;;;;;;;;;;5081300;28;20398;-54
2022/06/14 10:31:14;;;;;;;;;;;;;;;;;;5071127;28;19912;-55
2022/06/14 10:33:43;;;;;;;;;;;;;;;;;;5067093;28;20060;-56
2022/06/14 10:36:09;;;;;;;;;;;;;;;;;;5067650;28;20295;-55
2022/06/14 10:38:35;;;;;;;;;;;;;;;;;;5066430;28;19948;-55
2022/06/14 10:41:01;;;;;;;;;;;;;;;;;;5066947;28;19944;-56
2022/06/14 10:43:27;;;;;;;;;;;;;;;;;;5066580;28;19905;-55
2022/06/14 10:45:57;;;;;;;;;;;;;;;;;;5066847;28;19909;-56
2022/06/14 10:48:23;;;;;;;;;;;;;;;;;;5066540;28;19919;-56
2022/06/14 10:50:49;;;;;;;;;;;;;;;;;;5066701;28;19909;-55
2022/06/14 10:53:16;;;;;;;;;;;;;;;;;;5047246;28;20000;-56
2022/06/14 10:55:42;;;;;;;;;;;;;;;;;;5054725;28;20327;-56
2022/06/14 10:58:09;;;;;;;;;;;;;;;;;;5062464;28;19912;-55
2022/06/14 11:00:35;;;;;;;;;;;;;;;;;;5075750;28;19909;-55
2022/06/14 11:03:02;;;;;;;;;;;;;;;;;;5057163;28;19904;-55
2022/06/14 11:05:29;;;;;;;;;;;;;;;;;;5046789;28;19905;-54
2022/06/14 11:07:55;;;;;;;;;;;;;;;;;;5046161;28;19909;-55
2022/06/14 11:10:23;;;;;;;;;;;;;;;;;;5046134;28;19909;-57
2022/06/14 11:12:48;;;;;;;;;;;;;;;;;;5045977;28;19905;-56
2022/06/14 11:15:14;;;;;;;;;;;;;;;;;;5056157;28;19913;-56
2022/06/14 11:17:40;;;;;;;;;;;;;;;;;;5070255;28;19948;-56
2022/06/14 11:20:06;;;;;;;;;;;;;;;;;;5074496;28;20022;-56
2022/06/14 11:22:35;;;;;;;;;;;;;;;;;;5073834;28;20053;-56
2022/06/14 11:25:01;;;;;;;;;;;;;;;;;;5076565;28;19970;-56
2022/06/14 11:27:27;;;;;;;;;;;;;;;;;;5062617;28;20465;-57
2022/06/14 11:29:53;;;;;;;;;;;;;;;;;;5067544;28;19935;-56
2022/06/14 11:32:19;;;;;;;;;;;;;;;;;;5067102;28;19926;-56
2022/06/14 11:34:45;;;;;;;;;;;;;;;;;;5065680;28;19916;-56
2022/06/14 11:37:12;;;;;;;;;;;;;;;;;;5065967;28;19904;-56
2022/06/14 11:39:38;;;;;;;;;;;;;;;;;;5066138;28;19904;-56
2022/06/14 11:42:04;;;;;;;;;;;;;;;;;;5065571;28;19951;-55
2022/06/14 11:44:30;;;;;;;;;;;;;;;;;;5065564;28;19915;-55
2022/06/14 11:46:56;;;;;;;;;;;;;;;;;;5065728;28;20298;-56
2022/06/14 11:49:22;;;;;;;;;;;;;;;;;;5065267;28;19912;-55
2022/06/14 11:51:49;;;;;;;;;;;;;;;;;;5065499;28;19908;-56
2022/06/14 11:54:15;;;;;;;;;;;;;;;;;;5065828;28;19908;-57
2022/06/14 11:56:41;;;;;;;;;;;;;;;;;;5065164;28;19923;-57
2022/06/14 11:59:07;;;;;;;;;;;;;;;;;;5066166;28;19904;-56
2022/06/14 12:01:34;;;;;;;;;;;;;;;;;;5065349;28;19909;-56
2022/06/14 12:04:01;;;;;;;;;;;;;;;;;;5065165;28;19908;-56
2022/06/14 12:06:27;;;;;;;;;;;;;;;;;;5065262;28;19911;-57
2022/06/14 12:08:53;;;;;;;;;;;;;;;;;;5065331;28;19912;-56
2022/06/14 12:11:20;;;;;;;;;;;;;;;;;;5063652;28;20402;-56
2022/06/14 12:13:46;;;;;;;;;;;;;;;;;;5065310;28;19905;-57
2022/06/14 12:16:12;;;;;;;;;;;;;;;;;;5065747;28;19905;-56
2022/06/14 12:18:38;;;;;;;;;;;;;;;;;;5065581;28;19987;-56
2022/06/14 12:21:04;;;;;;;;;;;;;;;;;;5065132;28;19909;-57
2022/06/14 12:23:30;;;;;;;;;;;;;;;;;;5065347;28;20878;-57
2022/06/14 12:28:40;;;;;;;;;;;;;;;;;;5065133;28;19918;-57
2022/06/14 12:31:06;;;;;;;;;;;;;;;;;;5065658;28;19908;-56
2022/06/14 12:33:32;;;;;;;;;;;;;;;;;;5065152;28;19905;-57
2022/06/14 12:35:59;;;;;;;;;;;;;;;;;;5065386;28;19904;-56
2022/06/14 12:38:25;;;;;;;;;;;;;;;;;;5065040;28;19908;-56
2022/06/14 12:40:51;;;;;;;;;;;;;;;;;;5065025;28;19908;-57
2022/06/14 12:43:17;;;;;;;;;;;;;;;;;;5064840;28;20287;-57
2022/06/14 12:45:43;;;;;;;;;;;;;;;;;;5065234;28;19909;-57
2022/06/14 12:48:10;;;;;;;;;;;;;;;;;;5065577;28;19905;-57
2022/06/14 12:50:36;;;;;;;;;;;;;;;;;;5065466;28;20270;-56
2022/06/14 12:53:03;;;;;;;;;;;;;;;;;;5062559;28;19908;-57
2022/06/14 12:55:29;;;;;;;;;;;;;;;;;;5065031;28;20407;-56
2022/06/14 12:57:55;;;;;;;;;;;;;;;;;;5055472;28;20015;-57
2022/06/14 13:00:20;;;;;;;;;;;;;;;;;;5044798;28;19920;-57
2022/06/14 13:02:46;;;;;;;;;;;;;;;;;;5047115;28;19908;-57
2022/06/14 13:05:13;;;;;;;;;;;;;;;;;;5048782;28;20031;-57
2022/06/14 13:07:39;;;;;;;;;;;;;;;;;;5048428;28;19912;-57
2022/06/14 13:10:05;;;;;;;;;;;;;;;;;;5048994;28;19916;-57
2022/06/14 13:12:31;;;;;;;;;;;;;;;;;;5048144;28;19908;-57
2022/06/14 13:14:58;;;;;;;;;;;;;;;;;;5048683;28;19976;-57
2022/06/14 13:17:24;;;;;;;;;;;;;;;;;;5048286;28;19905;-57
2022/06/14 13:19:50;;;;;;;;;;;;;;;;;;5048574;28;19905;-57
2022/06/14 13:22:15;;;;;;;;;;;;;;;;;;5048339;28;19935;-57
2022/06/14 13:24:42;;;;;;;;;;;;;;;;;;5063244;28;19909;-57
2022/06/14 13:27:08;;;;;;;;;;;;;;;;;;5048575;28;20281;-57
2022/06/14 13:29:35;;;;;;;;;;;;;;;;;;5048730;28;19935;-57
2022/06/14 13:32:02;;;;;;;;;;;;;;;;;;5048020;28;19952;-57
2022/06/14 13:34:28;;;;;;;;;;;;;;;;;;5047710;28;19908;-57
2022/06/14 13:36:54;;;;;;;;;;;;;;;;;;5048298;28;19905;-57
2022/06/14 13:39:20;;;;;;;;;;;;;;;;;;5047859;28;20349;-57
2022/06/14 13:42:00;;;;;;;;;;;;;;;;;;5048082;28;19916;-57
2022/06/14 13:44:26;;;;;;;;;;;;;;;;;;5047785;28;19909;-56
2022/06/14 13:46:53;;;;;;;;;;;;;;;;;;5047922;28;19959;-57
2022/06/14 13:49:20;;;;;;;;;;;;;;;;;;5047855;28;19959;-57
2022/06/14 13:51:46;;;;;;;;;;;;;;;;;;5047870;28;19909;-57
2022/06/14 13:54:12;;;;;;;;;;;;;;;;;;5047886;28;20302;-57
2022/06/14 13:56:38;;;;;;;;;;;;;;;;;;5047986;28;20334;-57
2022/06/14 13:59:05;;;;;;;;;;;;;;;;;;5048790;28;19919;-57
2022/06/14 14:01:31;;;;;;;;;;;;;;;;;;5047427;28;19911;-57
2022/06/14 14:03:57;;;;;;;;;;;;;;;;;;5074859;28;19907;-57
2022/06/14 14:06:23;;;;;;;;;;;;;;;;;;5087961;28;20276;-57
2022/06/14 14:08:49;;;;;;;;;;;;;;;;;;5087701;28;19904;-57
2022/06/14 14:11:15;;;;;;;;;;;;;;;;;;5087488;28;20455;-57
2022/06/14 14:13:41;;;;;;;;;;;;;;;;;;5085822;28;19908;-57
2022/06/14 14:16:07;;;;;;;;;;;;;;;;;;5088386;28;20363;-57
2022/06/14 14:18:33;;;;;;;;;;;;;;;;;;5088027;28;19908;-57
2022/06/14 14:20:59;;;;;;;;;;;;;;;;;;5087635;28;19904;-57
2022/06/14 14:23:25;;;;;;;;;;;;;;;;;;5087193;28;20307;-57
2022/06/14 14:25:52;;;;;;;;;;;;;;;;;;5087394;28;19930;-57
2022/06/14 14:28:18;;;;;;;;;;;;;;;;;;5087234;28;19908;-57
2022/06/14 14:30:44;;;;;;;;;;;;;;;;;;5087465;28;20290;-57
2022/06/14 14:33:10;;;;;;;;;;;;;;;;;;5087216;28;19929;-57
2022/06/14 14:35:36;;;;;;;;;;;;;;;;;;5087903;28;19983;-57
2022/06/14 14:38:01;;;;;;;;;;;;;;;;;;5087382;28;19908;-57
2022/06/14 14:40:28;;;;;;;;;;;;;;;;;;5087252;28;19908;-57
2022/06/14 14:42:54;;;;;;;;;;;;;;;;;;5087683;28;19911;-57
2022/06/14 14:45:20;;;;;;;;;;;;;;;;;;5087086;28;20367;-57
2022/06/14 14:47:47;;;;;;;;;;;;;;;;;;5086953;28;19954;-57
2022/06/14 14:50:13;;;;;;;;;;;;;;;;;;5079865;28;19946;-57
2022/06/14 14:52:39;;;;;;;;;;;;;;;;;;5046960;28;19909;-57
2022/06/14 14:55:05;;;;;;;;;;;;;;;;;;5046062;28;19919;-57
2022/06/14 14:57:31;;;;;;;;;;;;;;;;;;5046363;28;19962;-57
2022/06/14 14:59:57;;;;;;;;;;;;;;;;;;5046643;28;19948;-57
2022/06/14 15:05:23;;;;;;;;;;;;;;;;;;5046166;28;20299;-57
2022/06/14 15:07:52;;;;;;;;;;;;;;;;;;5047125;28;20000;-57
2022/06/14 15:10:20;;;;;;;;;;;;;;;;;;5046707;28;20364;-57
2022/06/14 15:12:47;;;;;;;;;;;;;;;;;;5046565;28;20003;-57
2022/06/14 15:15:14;;;;;;;;;;;;;;;;;;5046567;28;19916;-57
2022/06/14 15:20:24;;;;;;;;;;;;;;;;;;5045963;28;19911;-57
2022/06/14 15:22:51;;;;;;;;;;;;;;;;;;5062153;28;20226;-57
2022/06/14 15:25:17;;;;;;;;;;;;;;;;;;5046215;28;19908;-57
2022/06/14 15:27:44;;;;;;;;;;;;;;;;;;5046085;28;19909;-57
2022/06/14 15:30:11;;;;;;;;;;;;;;;;;;5046010;28;19909;-58
2022/06/14 15:32:37;;;;;;;;;;;;;;;;;;5045804;28;20386;-57
2022/06/14 15:35:03;;;;;;;;;;;;;;;;;;5046319;28;19912;-57
2022/06/14 15:37:29;;;;;;;;;;;;;;;;;;5045788;28;19911;-57
2022/06/14 15:39:55;;;;;;;;;;;;;;;;;;5045504;28;20455;-57
2022/06/14 15:42:22;;;;;;;;;;;;;;;;;;5045411;28;19999;-57
2022/06/14 15:44:47;;;;;;;;;;;;;;;;;;5046454;28;19994;-57
2022/06/14 15:47:14;;;;;;;;;;;;;;;;;;5046010;28;20264;-57
2022/06/14 15:49:40;;;;;;;;;;;;;;;;;;5045955;28;20415;-57
2022/06/14 15:52:06;;;;;;;;;;;;;;;;;;5045403;28;19909;-57
2022/06/14 15:54:35;;;;;;;0.53;0.53;;;;;;;;;;5058928;28;20439;-56
2022/06/14 15:57:06;;;;;;;0.60;0.50;;;;;;;;;;5045085;28;20037;-57
2022/06/14 15:59:31;;;;;;;;;;;;;;;;;;5045406;28;20221;-57
2022/06/14 16:01:57;;;;;;;;;;;;;;;;;;5045145;28;20388;-57
2022/06/14 16:04:24;;;;;;;;;;;;;;;;;;5044987;28;20307;-57
2022/06/14 16:06:49;;;;;;;;;;;;;;;;;;5045894;28;20406;-57
2022/06/14 16:09:15;;;;;;;;;;;;;;;;;;5045128;28;19998;-57
2022/06/14 16:11:41;;;;;;;;;;;;;;;;;;5045085;28;19908;-56
2022/06/14 16:14:08;;;;;;;;;;;;;;;;;;5045252;28;19916;-57
2022/06/14 16:16:34;;;;;;;;;;;;;;;;;;5045441;28;20027;-57
2022/06/14 16:19:00;;;;;;;;;;;;;;;;;;5045217;28;19999;-57
2022/06/14 16:21:26;;;;;;;;;;;;;;;;;;5045226;28;20275;-57
2022/06/14 16:23:52;;;;;;;;;;;;;;;;;;5044987;28;19905;-57
2022/06/14 16:26:18;;;;;;;;;;;;;;;;;;5045624;28;19916;-57
2022/06/14 16:28:45;;;;;;;;;;;;;;;;;;5045154;28;19966;-57
2022/06/14 16:31:10;;;;;;;;;;;;;;;;;;5045185;28;20058;-57
2022/06/14 16:33:36;;;;;;;;;;;;;;;;;;5044840;28;19991;-57
2022/06/14 16:36:03;;;;;;;;;;;;;;;;;;5044419;28;19913;-57
2022/06/14 16:38:29;;;;;;;;;;;;;;;;;;5044698;28;19905;-57
2022/06/14 16:40:56;;;;;;;;;;;;;;;;;;5044947;28;19920;-57
2022/06/14 16:43:23;;;;;;;;;;;;;;;;;;5044628;28;20368;-57
2022/06/14 16:45:49;;;;;;;;;;;;;;;;;;5045385;28;19904;-57
2022/06/14 16:48:15;;;;;;;;;;;;;;;;;;5043945;28;19946;-57
2022/06/14 16:50:42;;;;;;;;;;;;;;;;;;5045133;28;19909;-57
2022/06/14 16:53:08;;;;;;;;;;;;;;;;;;5043911;28;19947;-57